Time;durP1;ratioP1;P1;durP2;ratioP2;P2;SDS_P1;SDS_P2;PMS_P1;PMS_P2;Temp;Humidity;BMP_temperature;BMP_pressure;BME280_temperature;BME280_humidity;BME280_pressure;Samples;Min_cycle;Max_cycle;Signal;HPM_P1;HPM_P2
2023/05/22 00:02:27;;;;;;;0.10;0.10;;;;;;;;;;6160417;23;20071;-77
2023/05/22 00:05:13;;;;;;;0.10;0.10;;;;;;;;;;6163213;23;20013;-76
2023/05/22 00:07:59;;;;;;;0.10;0.10;;;;;;;;;;6162780;23;20012;-77
2023/05/22 00:10:51;;;;;;;0.10;0.10;;;;;;;;;;6163812;23;20425;-77
2023/05/22 00:13:39;;;;;;;0.00;0.00;;;;;;;;;;6165608;23;20143;-76
2023/05/22 00:16:25;;;;;;;0.03;0.03;;;;;;;;;;6168042;23;20013;-76
2023/05/22 00:19:21;;;;;;;0.10;0.10;;;;;;;;;;6168443;23;20020;-77
2023/05/22 00:22:08;;;;;;;0.00;0.00;;;;;;;;;;6128799;23;20040;-77
2023/05/22 00:24:53;;;;;;;0.10;0.10;;;;;;;;;;6164508;23;20522;-77
2023/05/22 00:27:39;;;;;;;0.10;0.10;;;;;;;;;;6167531;23;20008;-77
2023/05/22 00:30:25;;;;;;;0.00;0.00;;;;;;;;;;6147689;23;20060;-77
2023/05/22 00:33:11;;;;;;;0.10;0.10;;;;;;;;;;6164344;23;20048;-77
2023/05/22 00:35:56;;;;;;;0.00;0.00;;;;;;;;;;6162775;23;20021;-77
2023/05/22 00:38:42;;;;;;;0.10;0.10;;;;;;;;;;6160848;23;20057;-77
2023/05/22 00:41:34;;;;;;;0.10;0.10;;;;;;;;;;6140177;23;20083;-77
2023/05/22 00:44:19;;;;;;;0.10;0.10;;;;;;;;;;6142271;23;20021;-77
2023/05/22 00:47:12;;;;;;;0.00;0.00;;;;;;;;;;6163383;23;20013;-77
2023/05/22 00:49:58;;;;;;;0.00;0.00;;;;;;;;;;6139857;23;20464;-77
2023/05/22 00:52:44;;;;;;;0.03;0.03;;;;;;;;;;6141614;23;20055;-77
2023/05/22 00:55:30;;;;;;;0.10;0.10;;;;;;;;;;6143001;23;20608;-77
2023/05/22 00:58:16;;;;;;;0.00;0.00;;;;;;;;;;6164021;23;20017;-77
2023/05/22 01:01:02;;;;;;;0.00;0.00;;;;;;;;;;6141604;23;20024;-77
2023/05/22 01:03:49;;;;;;;0.00;0.00;;;;;;;;;;6142624;23;20450;-77
2023/05/22 01:06:35;;;;;;;0.10;0.10;;;;;;;;;;6144379;23;20036;-77
2023/05/22 01:09:20;;;;;;;0.00;0.00;;;;;;;;;;6144042;23;20017;-77
2023/05/22 01:12:16;;;;;;;0.00;0.00;;;;;;;;;;6144615;23;20451;-77
2023/05/22 01:15:21;;;;;;;0.00;0.00;;;;;;;;;;6144276;23;20112;-77
2023/05/22 01:18:23;;;;;;;0.10;0.10;;;;;;;;;;6165812;23;20017;-77
2023/05/22 01:21:29;;;;;;;0.10;0.10;;;;;;;;;;6163212;23;20543;-77
2023/05/22 01:24:35;;;;;;;0.10;0.10;;;;;;;;;;6162131;23;20704;-77
2023/05/22 01:27:24;;;;;;;0.10;0.10;;;;;;;;;;6141892;23;20055;-77
2023/05/22 01:30:20;;;;;;;0.00;0.00;;;;;;;;;;6163152;23;20355;-76
2023/05/22 01:33:06;;;;;;;0.10;0.10;;;;;;;;;;6140393;23;20029;-77
2023/05/22 01:35:53;;;;;;;0.00;0.00;;;;;;;;;;6164896;23;20013;-77
2023/05/22 01:38:40;;;;;;;0.10;0.10;;;;;;;;;;6164818;23;20044;-76
2023/05/22 01:41:27;;;;;;;0.10;0.10;;;;;;;;;;6165215;23;20079;-77
2023/05/22 01:44:13;;;;;;;0.00;0.00;;;;;;;;;;6167213;23;20451;-76
2023/05/22 01:47:03;;;;;;;0.10;0.10;;;;;;;;;;6163905;23;20075;-77
2023/05/22 01:49:50;;;;;;;0.10;0.10;;;;;;;;;;6163402;23;20354;-77
2023/05/22 01:52:54;;;;;;;0.10;0.10;;;;;;;;;;6164448;23;20020;-77
2023/05/22 01:55:44;;;;;;;0.10;0.10;;;;;;;;;;6166677;23;20017;-76
2023/05/22 01:58:48;;;;;;;0.00;0.00;;;;;;;;;;6144148;23;20049;-77
2023/05/22 02:01:36;;;;;;;0.10;0.10;;;;;;;;;;6141033;23;20517;-77
2023/05/22 02:04:22;;;;;;;0.10;0.10;;;;;;;;;;6166006;23;20025;-77
2023/05/22 02:07:10;;;;;;;0.10;0.10;;;;;;;;;;6142330;23;20032;-77
2023/05/22 02:09:57;;;;;;;0.05;0.05;;;;;;;;;;6143922;23;20390;-77
2023/05/22 02:12:43;;;;;;;0.10;0.10;;;;;;;;;;6163535;23;20048;-77
2023/05/22 02:15:29;;;;;;;0.10;0.10;;;;;;;;;;6164747;23;20035;-77
2023/05/22 02:18:15;;;;;;;0.10;0.10;;;;;;;;;;6144311;23;20398;-77
2023/05/22 02:21:02;;;;;;;0.10;0.10;;;;;;;;;;6143538;23;20017;-77
2023/05/22 02:23:50;;;;;;;0.13;0.10;;;;;;;;;;6143193;23;20336;-77
2023/05/22 02:26:38;;;;;;;0.10;0.10;;;;;;;;;;6164057;23;20013;-77
2023/05/22 02:29:24;;;;;;;0.00;0.00;;;;;;;;;;6145157;23;20024;-77
2023/05/22 02:32:09;;;;;;;0.10;0.10;;;;;;;;;;6163774;23;20024;-77
2023/05/22 02:34:57;;;;;;;0.10;0.10;;;;;;;;;;6144229;23;20043;-77
2023/05/22 02:37:43;;;;;;;0.10;0.10;;;;;;;;;;6144405;23;20024;-77
2023/05/22 02:40:29;;;;;;;0.10;0.10;;;;;;;;;;6163270;23;20049;-77
2023/05/22 02:43:15;;;;;;;0.10;0.10;;;;;;;;;;6123865;23;20789;-77
2023/05/22 02:46:00;;;;;;;0.10;0.10;;;;;;;;;;6144236;23;20009;-77
2023/05/22 02:48:46;;;;;;;0.10;0.10;;;;;;;;;;6143147;23;20456;-77
2023/05/22 02:51:32;;;;;;;0.10;0.10;;;;;;;;;;6122987;23;20526;-77
2023/05/22 02:54:18;;;;;;;0.10;0.10;;;;;;;;;;6143828;23;20025;-77
2023/05/22 02:57:03;;;;;;;0.10;0.10;;;;;;;;;;6166164;23;20009;-77
2023/05/22 02:59:50;;;;;;;0.10;0.10;;;;;;;;;;6143227;23;20056;-77
2023/05/22 03:02:36;;;;;;;0.10;0.10;;;;;;;;;;6143201;23;20088;-77
2023/05/22 03:05:22;;;;;;;0.20;0.20;;;;;;;;;;6142414;23;20013;-77
2023/05/22 03:08:07;;;;;;;0.10;0.10;;;;;;;;;;6142540;23;20060;-77
2023/05/22 03:10:54;;;;;;;0.10;0.10;;;;;;;;;;6142935;23;20021;-77
2023/05/22 03:13:40;;;;;;;0.10;0.10;;;;;;;;;;6143420;23;20016;-77
2023/05/22 03:16:26;;;;;;;0.20;0.20;;;;;;;;;;6165088;23;20068;-77
2023/05/22 03:19:13;;;;;;;0.00;0.00;;;;;;;;;;6144096;23;20839;-77
2023/05/22 03:21:59;;;;;;;0.10;0.10;;;;;;;;;;6164077;23;20061;-77
2023/05/22 03:24:45;;;;;;;0.10;0.10;;;;;;;;;;6141259;23;20223;-77
2023/05/22 03:27:31;;;;;;;0.10;0.10;;;;;;;;;;6124007;23;20013;-77
2023/05/22 03:30:16;;;;;;;0.13;0.13;;;;;;;;;;6162626;23;20080;-76
2023/05/22 03:33:12;;;;;;;0.00;0.00;;;;;;;;;;6143167;23;20525;-77
2023/05/22 03:35:58;;;;;;;0.10;0.10;;;;;;;;;;6143845;23;20021;-77
2023/05/22 03:38:44;;;;;;;0.10;0.10;;;;;;;;;;6162693;23;20013;-77
2023/05/22 03:41:30;;;;;;;0.10;0.10;;;;;;;;;;6143423;23;20017;-77
2023/05/22 03:44:16;;;;;;;0.10;0.10;;;;;;;;;;6163150;23;20753;-77
2023/05/22 03:47:02;;;;;;;0.10;0.10;;;;;;;;;;6141958;23;20017;-77
2023/05/22 03:49:49;;;;;;;0.10;0.10;;;;;;;;;;6143443;23;20180;-77
2023/05/22 03:52:35;;;;;;;0.10;0.10;;;;;;;;;;6143637;23;20092;-76
2023/05/22 03:55:22;;;;;;;0.10;0.10;;;;;;;;;;6163616;23;20009;-76
2023/05/22 03:58:08;;;;;;;0.10;0.10;;;;;;;;;;6144160;23;20336;-76
2023/05/22 04:00:57;;;;;;;0.10;0.10;;;;;;;;;;6141856;23;20024;-76
2023/05/22 04:03:44;;;;;;;0.10;0.10;;;;;;;;;;6142871;23;20021;-76
2023/05/22 04:06:31;;;;;;;0.15;0.15;;;;;;;;;;6164998;23;20017;-76
2023/05/22 04:09:17;;;;;;;0.10;0.10;;;;;;;;;;6144112;23;20357;-76
2023/05/22 04:12:04;;;;;;;0.10;0.10;;;;;;;;;;6143599;23;20045;-76
2023/05/22 04:14:49;;;;;;;0.00;0.00;;;;;;;;;;6143826;23;20021;-76
2023/05/22 04:17:38;;;;;;;0.10;0.10;;;;;;;;;;6164522;23;20020;-76
2023/05/22 04:20:23;;;;;;;0.10;0.10;;;;;;;;;;6166196;23;20045;-76
2023/05/22 04:23:09;;;;;;;0.10;0.10;;;;;;;;;;6164689;23;20040;-76
2023/05/22 04:25:57;;;;;;;0.10;0.10;;;;;;;;;;6165161;23;20470;-76
2023/05/22 04:28:44;;;;;;;0.05;0.05;;;;;;;;;;6164003;23;20017;-76
2023/05/22 04:31:31;;;;;;;0.10;0.10;;;;;;;;;;6142308;23;20024;-76
2023/05/22 04:34:17;;;;;;;0.10;0.10;;;;;;;;;;6165488;23;20104;-76
2023/05/22 04:37:03;;;;;;;0.00;0.00;;;;;;;;;;6145577;23;20504;-76
2023/05/22 04:39:52;;;;;;;0.13;0.13;;;;;;;;;;6164814;23;20530;-75
2023/05/22 04:42:38;;;;;;;0.10;0.10;;;;;;;;;;6163628;23;20035;-76
2023/05/22 04:45:24;;;;;;;0.10;0.10;;;;;;;;;;6165423;23;20021;-76
2023/05/22 04:48:10;;;;;;;0.10;0.10;;;;;;;;;;6145133;23;20020;-76
2023/05/22 04:50:57;;;;;;;0.00;0.00;;;;;;;;;;6165586;23;20028;-76
2023/05/22 04:53:44;;;;;;;0.10;0.10;;;;;;;;;;6145163;23;20017;-76
2023/05/22 04:56:30;;;;;;;0.10;0.10;;;;;;;;;;6144836;23;20017;-77
2023/05/22 04:59:18;;;;;;;0.10;0.10;;;;;;;;;;6144072;23;20022;-76
2023/05/22 05:02:04;;;;;;;0.10;0.10;;;;;;;;;;6141030;23;20044;-76
2023/05/22 05:04:51;;;;;;;0.10;0.10;;;;;;;;;;6165664;23;20025;-76
2023/05/22 05:07:38;;;;;;;0.10;0.10;;;;;;;;;;6164598;23;20104;-76
2023/05/22 05:10:24;;;;;;;0.10;0.10;;;;;;;;;;6142305;23;20420;-76
2023/05/22 05:13:11;;;;;;;0.10;0.10;;;;;;;;;;6143356;23;20024;-77
2023/05/22 05:15:58;;;;;;;0.10;0.10;;;;;;;;;;6145694;23;20016;-76
2023/05/22 05:18:44;;;;;;;0.10;0.10;;;;;;;;;;6163856;23;20020;-77
2023/05/22 05:21:30;;;;;;;0.10;0.10;;;;;;;;;;6145005;23;20053;-77
2023/05/22 05:24:19;;;;;;;0.10;0.10;;;;;;;;;;6143812;23;20098;-76
2023/05/22 05:27:06;;;;;;;0.10;0.10;;;;;;;;;;6144022;23;20021;-77
2023/05/22 05:29:52;;;;;;;0.10;0.10;;;;;;;;;;6145482;23;20020;-77
2023/05/22 05:32:43;;;;;;;0.10;0.10;;;;;;;;;;6141696;23;20052;-77
2023/05/22 05:36:05;;;;;;;0.10;0.10;;;;;;;;;;6122661;23;20032;-76
2023/05/22 05:38:36;;;;;;;0.10;0.10;;;;;;;;;;6161901;22;20025;-85
2023/05/22 05:41:23;;;;;;;0.10;0.10;;;;;;;;;;6146002;23;20141;-87
2023/05/22 05:44:16;;;;;;;0.10;0.10;;;;;;;;;;6121577;23;20033;-76
2023/05/22 05:47:02;;;;;;;0.10;0.10;;;;;;;;;;6097797;23;20465;-76
2023/05/22 05:49:48;;;;;;;0.10;0.10;;;;;;;;;;6118635;23;20490;-76
2023/05/22 05:52:35;;;;;;;0.10;0.10;;;;;;;;;;6117544;23;20108;-76
2023/05/22 05:55:27;;;;;;;0.10;0.10;;;;;;;;;;6116580;23;20478;-76
2023/05/22 05:58:13;;;;;;;0.03;0.03;;;;;;;;;;6117575;23;20037;-76
2023/05/22 06:01:10;;;;;;;0.10;0.10;;;;;;;;;;6115240;23;20063;-76
2023/05/22 06:04:01;;;;;;;0.10;0.10;;;;;;;;;;6099693;23;20028;-76
2023/05/22 06:06:50;;;;;;;0.10;0.10;;;;;;;;;;6119597;23;20021;-76
2023/05/22 06:13:22;;;;;;;0.10;0.10;;;;;;;;;;6156645;22;20112;-86
2023/05/22 06:16:08;;;;;;;0.10;0.10;;;;;;;;;;6134257;23;20044;-87
2023/05/22 06:18:55;;;;;;;0.10;0.10;;;;;;;;;;6115999;23;20407;-76
2023/05/22 06:21:41;;;;;;;0.10;0.10;;;;;;;;;;6128648;23;20045;-76
2023/05/22 06:24:28;;;;;;;0.10;0.10;;;;;;;;;;6109915;23;20068;-76
2023/05/22 06:27:15;;;;;;;0.10;0.10;;;;;;;;;;6127845;23;20014;-76
2023/05/22 06:30:01;;;;;;;0.00;0.00;;;;;;;;;;6108276;23;20121;-76
2023/05/22 06:32:54;;;;;;;0.10;0.10;;;;;;;;;;6108158;23;20076;-76
2023/05/22 06:35:40;;;;;;;0.10;0.10;;;;;;;;;;6103727;23;20331;-76
2023/05/22 06:41:04;;;;;;;0.10;0.10;;;;;;;;;;6153369;23;20056;-76
2023/05/22 06:43:50;;;;;;;0.10;0.10;;;;;;;;;;6132653;23;20013;-76
2023/05/22 06:46:41;;;;;;;0.10;0.10;;;;;;;;;;6139188;23;20071;-76
2023/05/22 06:49:31;;;;;;;0.10;0.10;;;;;;;;;;6121653;23;20052;-76
2023/05/22 06:52:22;;;;;;;0.10;0.10;;;;;;;;;;6136664;23;20304;-76
2023/05/22 06:55:08;;;;;;;0.10;0.10;;;;;;;;;;6160680;23;20051;-76
2023/05/22 06:58:06;;;;;;;0.10;0.10;;;;;;;;;;6143754;23;20040;-76
2023/05/22 07:00:54;;;;;;;0.10;0.10;;;;;;;;;;6138468;23;20761;-76
2023/05/22 07:03:47;;;;;;;0.10;0.10;;;;;;;;;;6142544;23;20108;-75
2023/05/22 07:06:52;;;;;;;0.15;0.10;;;;;;;;;;6144358;23;20017;-76
2023/05/22 07:09:37;;;;;;;0.10;0.10;;;;;;;;;;6141124;23;20111;-77
2023/05/22 07:12:27;;;;;;;0.00;0.00;;;;;;;;;;6142221;23;20036;-77
2023/05/22 07:15:14;;;;;;;0.10;0.10;;;;;;;;;;6141055;23;20013;-77
2023/05/22 07:18:05;;;;;;;0.10;0.10;;;;;;;;;;6143766;23;20115;-78
2023/05/22 07:23:41;;;;;;;0.20;0.20;;;;;;;;;;6143573;22;20021;-92
2023/05/22 07:26:30;;;;;;;0.10;0.10;;;;;;;;;;6138551;23;20151;-90
2023/05/22 07:29:03;;;;;;;0.10;0.10;;;;;;;;;;6113974;23;20025;-78
2023/05/22 07:31:52;;;;;;;0.10;0.10;;;;;;;;;;6138047;23;20373;-78
2023/05/22 07:34:38;;;;;;;0.10;0.10;;;;;;;;;;6098331;23;20276;-78
2023/05/22 07:37:32;;;;;;;0.15;0.15;;;;;;;;;;6117315;23;20351;-78
2023/05/22 07:40:17;;;;;;;0.10;0.10;;;;;;;;;;6116759;23;20014;-78
2023/05/22 07:46:54;;;;;;;0.10;0.10;;;;;;;;;;6122936;22;20033;-89
2023/05/22 07:49:44;;;;;;;0.10;0.10;;;;;;;;;;6120552;23;20028;-89
2023/05/22 07:52:36;;;;;;;0.20;0.20;;;;;;;;;;6121994;23;20538;-89
2023/05/22 07:55:23;;;;;;;0.10;0.10;;;;;;;;;;6130806;23;20029;-77
2023/05/22 07:58:11;;;;;;;0.10;0.10;;;;;;;;;;6136110;23;20037;-77
2023/05/22 08:01:00;;;;;;;0.10;0.10;;;;;;;;;;6134561;23;20025;-77
2023/05/22 08:03:46;;;;;;;0.20;0.20;;;;;;;;;;6139181;23;20477;-78
2023/05/22 08:06:33;;;;;;;0.10;0.10;;;;;;;;;;6140591;23;20350;-77
2023/05/22 08:09:20;;;;;;;0.10;0.10;;;;;;;;;;6140172;23;20024;-77
2023/05/22 08:12:08;;;;;;;0.10;0.10;;;;;;;;;;6140274;23;20443;-78
2023/05/22 08:14:53;;;;;;;0.10;0.10;;;;;;;;;;6140320;23;20013;-77
2023/05/22 08:17:39;;;;;;;0.10;0.10;;;;;;;;;;6140942;23;20709;-78
2023/05/22 08:20:25;;;;;;;0.10;0.10;;;;;;;;;;6138349;23;20091;-78
2023/05/22 08:23:11;;;;;;;0.10;0.10;;;;;;;;;;6142701;23;20021;-78
2023/05/22 08:25:57;;;;;;;0.13;0.13;;;;;;;;;;6138290;23;20518;-77
2023/05/22 08:28:43;;;;;;;0.10;0.10;;;;;;;;;;6139498;23;20045;-78
2023/05/22 08:31:29;;;;;;;0.10;0.10;;;;;;;;;;6141473;23;20021;-77
2023/05/22 08:34:15;;;;;;;0.10;0.10;;;;;;;;;;6139540;23;20061;-77
2023/05/22 08:37:01;;;;;;;0.10;0.10;;;;;;;;;;6139738;23;20021;-77
2023/05/22 08:39:46;;;;;;;0.10;0.10;;;;;;;;;;6139015;23;20097;-77
2023/05/22 08:42:32;;;;;;;0.10;0.10;;;;;;;;;;6138258;23;20013;-77
2023/05/22 08:45:18;;;;;;;0.10;0.10;;;;;;;;;;6139982;23;20022;-78
2023/05/22 08:48:04;;;;;;;0.10;0.10;;;;;;;;;;6138477;23;20053;-77
2023/05/22 08:50:56;;;;;;;0.10;0.10;;;;;;;;;;6140143;23;20028;-78
2023/05/22 08:53:42;;;;;;;0.10;0.10;;;;;;;;;;6140872;23;20025;-77
2023/05/22 08:56:29;;;;;;;0.10;0.10;;;;;;;;;;6171314;23;20024;-78
2023/05/22 08:59:15;;;;;;;0.00;0.00;;;;;;;;;;6172337;23;20019;-77
2023/05/22 09:02:03;;;;;;;0.10;0.10;;;;;;;;;;6143527;23;20017;-77
2023/05/22 09:04:49;;;;;;;0.10;0.10;;;;;;;;;;6128425;23;20532;-77
2023/05/22 09:07:36;;;;;;;0.20;0.20;;;;;;;;;;6164406;23;20039;-77
2023/05/22 09:10:22;;;;;;;0.00;0.00;;;;;;;;;;6169881;23;20510;-77
2023/05/22 09:13:11;;;;;;;0.10;0.10;;;;;;;;;;6168304;23;20025;-77
2023/05/22 09:15:58;;;;;;;0.10;0.10;;;;;;;;;;6170224;23;20016;-77
2023/05/22 09:18:45;;;;;;;0.10;0.10;;;;;;;;;;6174041;23;20028;-77
2023/05/22 09:21:36;;;;;;;0.10;0.10;;;;;;;;;;6173898;23;20800;-77
2023/05/22 09:24:21;;;;;;;0.10;0.10;;;;;;;;;;6168141;23;20119;-77
2023/05/22 09:27:08;;;;;;;0.10;0.10;;;;;;;;;;6171768;23;20060;-77
2023/05/22 09:30:11;;;;;;;0.10;0.10;;;;;;;;;;6152639;23;20058;-77
2023/05/22 09:32:58;;;;;;;0.10;0.10;;;;;;;;;;6172788;23;20009;-77
2023/05/22 09:35:47;;;;;;;0.10;0.10;;;;;;;;;;6172037;23;20021;-77
2023/05/22 09:38:33;;;;;;;0.10;0.10;;;;;;;;;;6160669;23;20052;-77
2023/05/22 09:41:21;;;;;;;0.03;0.03;;;;;;;;;;6167369;23;20017;-77
2023/05/22 09:44:11;;;;;;;0.10;0.10;;;;;;;;;;6170412;23;20044;-77
2023/05/22 09:46:57;;;;;;;0.10;0.10;;;;;;;;;;6167185;23;20092;-78
2023/05/22 09:49:44;;;;;;;0.10;0.10;;;;;;;;;;6169550;23;20598;-77
2023/05/22 09:52:33;;;;;;;0.10;0.10;;;;;;;;;;6170018;23;20078;-78
2023/05/22 09:55:21;;;;;;;0.10;0.10;;;;;;;;;;6168939;23;20498;-77
2023/05/22 09:58:08;;;;;;;0.10;0.10;;;;;;;;;;6148788;23;20013;-77
2023/05/22 10:00:55;;;;;;;0.10;0.10;;;;;;;;;;6148360;23;20100;-77
2023/05/22 10:03:41;;;;;;;0.10;0.10;;;;;;;;;;6170847;23;20518;-77
2023/05/22 10:06:30;;;;;;;0.10;0.10;;;;;;;;;;6169426;23;20021;-78
2023/05/22 10:09:19;;;;;;;0.10;0.10;;;;;;;;;;6171523;23;20088;-77
2023/05/22 10:12:06;;;;;;;0.20;0.20;;;;;;;;;;6172218;23;20009;-77
2023/05/22 10:14:54;;;;;;;0.15;0.15;;;;;;;;;;6171652;23;20020;-77
2023/05/22 10:17:40;;;;;;;0.10;0.10;;;;;;;;;;6149119;23;20017;-78
2023/05/22 10:20:27;;;;;;;0.10;0.10;;;;;;;;;;6166724;23;20652;-78
2023/05/22 10:23:13;;;;;;;0.10;0.10;;;;;;;;;;6168099;23;20103;-78
2023/05/22 10:26:00;;;;;;;0.20;0.20;;;;;;;;;;6169716;23;20086;-77
2023/05/22 10:28:50;;;;;;;0.10;0.10;;;;;;;;;;6166493;23;20056;-78
2023/05/22 10:31:59;;;;;;;0.10;0.10;;;;;;;;;;6168412;23;20037;-78
2023/05/22 10:35:07;;;;;;;0.15;0.13;;;;;;;;;;6121298;23;20028;-78
2023/05/22 10:38:15;;;;;;;0.10;0.10;;;;;;;;;;6164272;23;20017;-78
2023/05/22 10:41:04;;;;;;;0.10;0.10;;;;;;;;;;6166788;23;20013;-78
2023/05/22 10:43:50;;;;;;;0.10;0.10;;;;;;;;;;6167636;23;20024;-77
2023/05/22 10:46:36;;;;;;;0.10;0.10;;;;;;;;;;6165638;23;20103;-78
2023/05/22 10:49:22;;;;;;;0.10;0.10;;;;;;;;;;6167574;23;20013;-77
2023/05/22 10:52:08;;;;;;;0.10;0.10;;;;;;;;;;6144436;23;20024;-77
2023/05/22 10:54:55;;;;;;;0.10;0.10;;;;;;;;;;6167250;23;20093;-77
2023/05/22 10:57:41;;;;;;;0.10;0.10;;;;;;;;;;6168144;23;20048;-77
2023/05/22 11:00:28;;;;;;;0.30;0.20;;;;;;;;;;6166486;23;20502;-77
2023/05/22 11:03:16;;;;;;;0.10;0.10;;;;;;;;;;6117949;23;20024;-77
2023/05/22 11:06:02;;;;;;;0.10;0.10;;;;;;;;;;6170597;23;20022;-77
2023/05/22 11:08:48;;;;;;;0.10;0.10;;;;;;;;;;6167224;23;20072;-77
2023/05/22 11:11:34;;;;;;;0.05;0.05;;;;;;;;;;6168261;23;20019;-77
2023/05/22 11:14:20;;;;;;;0.20;0.20;;;;;;;;;;6167423;23;20027;-77
2023/05/22 11:17:06;;;;;;;0.10;0.10;;;;;;;;;;6167314;23;20021;-77
2023/05/22 11:20:01;;;;;;;0.10;0.10;;;;;;;;;;6166506;23;20017;-77
2023/05/22 11:22:56;;;;;;;0.10;0.10;;;;;;;;;;6165847;23;20160;-77
2023/05/22 11:25:42;;;;;;;0.10;0.10;;;;;;;;;;6146773;23;20108;-77
2023/05/22 11:28:29;;;;;;;0.20;0.20;;;;;;;;;;6166930;23;20195;-77
2023/05/22 11:31:16;;;;;;;0.10;0.10;;;;;;;;;;6170812;23;20199;-77
2023/05/22 11:34:02;;;;;;;0.10;0.10;;;;;;;;;;6169234;23;20021;-77
2023/05/22 11:36:48;;;;;;;0.10;0.10;;;;;;;;;;6170576;23;20470;-77
2023/05/22 11:39:34;;;;;;;0.10;0.10;;;;;;;;;;6170064;23;20095;-78
2023/05/22 11:42:20;;;;;;;0.10;0.10;;;;;;;;;;6168738;23;20067;-77
2023/05/22 11:45:06;;;;;;;0.10;0.10;;;;;;;;;;6168391;23;20445;-78
2023/05/22 11:47:52;;;;;;;0.10;0.10;;;;;;;;;;6168582;23;20012;-78
2023/05/22 11:50:37;;;;;;;0.10;0.10;;;;;;;;;;6167947;23;20134;-77
2023/05/22 11:53:23;;;;;;;0.00;0.00;;;;;;;;;;6168926;23;20021;-78
2023/05/22 11:56:09;;;;;;;0.20;0.20;;;;;;;;;;6111069;23;20030;-78
2023/05/22 11:58:55;;;;;;;0.00;0.00;;;;;;;;;;6109901;23;20627;-78
2023/05/22 12:01:41;;;;;;;0.10;0.10;;;;;;;;;;6110104;23;20133;-78
2023/05/22 12:04:26;;;;;;;0.10;0.10;;;;;;;;;;6110798;23;20017;-78
2023/05/22 12:07:13;;;;;;;0.10;0.10;;;;;;;;;;6110560;23;20470;-78
2023/05/22 12:09:59;;;;;;;0.10;0.10;;;;;;;;;;6110164;23;20101;-78
2023/05/22 12:12:46;;;;;;;0.10;0.10;;;;;;;;;;6109924;23;20128;-78
2023/05/22 12:15:32;;;;;;;0.10;0.10;;;;;;;;;;6110432;23;20451;-78
2023/05/22 12:18:18;;;;;;;0.10;0.10;;;;;;;;;;6110941;23;20018;-78
2023/05/22 12:21:04;;;;;;;0.17;0.17;;;;;;;;;;6110537;23;20018;-78
2023/05/22 12:23:50;;;;;;;0.10;0.10;;;;;;;;;;6109755;23;20022;-78
2023/05/22 12:26:36;;;;;;;0.03;0.03;;;;;;;;;;6109912;23;20092;-79
2023/05/22 12:29:22;;;;;;;0.10;0.10;;;;;;;;;;6110676;23;20066;-79
2023/05/22 12:32:12;;;;;;;0.10;0.10;;;;;;;;;;6111022;23;20333;-78
2023/05/22 12:34:58;;;;;;;0.10;0.10;;;;;;;;;;6109146;23;20048;-79
2023/05/22 12:37:48;;;;;;;0.10;0.10;;;;;;;;;;6110548;23;20029;-79
2023/05/22 12:40:34;;;;;;;0.10;0.10;;;;;;;;;;6110634;23;20017;-79
2023/05/22 12:43:21;;;;;;;0.08;0.08;;;;;;;;;;6110253;23;20097;-79
2023/05/22 12:46:07;;;;;;;0.10;0.10;;;;;;;;;;6110374;23;20144;-79
2023/05/22 12:48:53;;;;;;;0.10;0.10;;;;;;;;;;6109570;23;20052;-79
2023/05/22 12:51:39;;;;;;;0.10;0.10;;;;;;;;;;6109915;23;20092;-78
2023/05/22 12:54:24;;;;;;;0.10;0.10;;;;;;;;;;6128957;23;20032;-79
2023/05/22 12:57:10;;;;;;;0.10;0.10;;;;;;;;;;6169934;23;20013;-78
2023/05/22 12:59:56;;;;;;;0.10;0.10;;;;;;;;;;6167926;23;20709;-76
2023/05/22 13:02:42;;;;;;;0.10;0.10;;;;;;;;;;6167619;23;20111;-78
2023/05/22 13:05:28;;;;;;;0.10;0.10;;;;;;;;;;6169506;23;20052;-78
2023/05/22 13:08:13;;;;;;;0.03;0.03;;;;;;;;;;6167973;23;20100;-78
2023/05/22 13:10:59;;;;;;;0.08;0.08;;;;;;;;;;6169152;23;20017;-78
2023/05/22 13:13:45;;;;;;;0.13;0.13;;;;;;;;;;6168049;23;20678;-78
2023/05/22 13:16:31;;;;;;;0.08;0.08;;;;;;;;;;6170159;23;20522;-78
2023/05/22 13:19:16;;;;;;;0.10;0.10;;;;;;;;;;6168102;23;20043;-78
2023/05/22 13:22:06;;;;;;;0.10;0.10;;;;;;;;;;6170909;23;20013;-78
2023/05/22 13:24:52;;;;;;;0.10;0.10;;;;;;;;;;6167699;23;20016;-78
2023/05/22 13:27:37;;;;;;;0.20;0.20;;;;;;;;;;6167546;23;20028;-78
2023/05/22 13:30:23;;;;;;;0.10;0.10;;;;;;;;;;6167831;23;20021;-78
2023/05/22 13:33:09;;;;;;;0.10;0.10;;;;;;;;;;6168362;23;20013;-78
2023/05/22 13:35:55;;;;;;;0.10;0.10;;;;;;;;;;6146026;23;20020;-78
2023/05/22 13:38:41;;;;;;;0.10;0.10;;;;;;;;;;6168095;23;20334;-78
2023/05/22 13:41:27;;;;;;;0.10;0.10;;;;;;;;;;6148880;23;20095;-78
2023/05/22 13:44:12;;;;;;;0.10;0.10;;;;;;;;;;6168010;23;20547;-79
2023/05/22 13:46:58;;;;;;;0.10;0.10;;;;;;;;;;6166938;23;20024;-79
2023/05/22 13:49:44;;;;;;;0.20;0.20;;;;;;;;;;6146177;23;20040;-78
2023/05/22 13:52:30;;;;;;;0.10;0.10;;;;;;;;;;6169868;23;20012;-78
2023/05/22 13:55:16;;;;;;;0.00;0.00;;;;;;;;;;6171180;23;20056;-78
2023/05/22 13:58:02;;;;;;;0.00;0.00;;;;;;;;;;6168333;23;20099;-78
2023/05/22 14:00:50;;;;;;;0.10;0.10;;;;;;;;;;6172741;23;20254;-78
2023/05/22 14:03:37;;;;;;;0.10;0.10;;;;;;;;;;6172186;23;20453;-78
2023/05/22 14:06:28;;;;;;;0.05;0.05;;;;;;;;;;6151905;23;20013;-78
2023/05/22 14:09:17;;;;;;;0.00;0.00;;;;;;;;;;6170661;23;20055;-78
2023/05/22 14:12:15;;;;;;;0.10;0.10;;;;;;;;;;6173401;23;20462;-78
2023/05/22 14:15:04;;;;;;;0.00;0.00;;;;;;;;;;6173594;23;20108;-77
2023/05/22 14:18:00;;;;;;;0.00;0.00;;;;;;;;;;6151682;23;20045;-78
2023/05/22 14:20:46;;;;;;;0.10;0.10;;;;;;;;;;6173806;23;20023;-78
2023/05/22 14:23:32;;;;;;;0.10;0.10;;;;;;;;;;6172521;23;20025;-78
2023/05/22 14:26:17;;;;;;;0.08;0.08;;;;;;;;;;6173573;23;20343;-78
2023/05/22 14:29:03;;;;;;;0.00;0.00;;;;;;;;;;6172990;23;20324;-78
2023/05/22 14:31:49;;;;;;;0.10;0.10;;;;;;;;;;6175889;23;20019;-78
2023/05/22 14:34:35;;;;;;;0.00;0.00;;;;;;;;;;6173246;23;20093;-78
2023/05/22 14:37:21;;;;;;;0.00;0.00;;;;;;;;;;6173084;23;20009;-78
2023/05/22 14:40:08;;;;;;;0.10;0.10;;;;;;;;;;6174695;23;20013;-77
2023/05/22 14:43:08;;;;;;;0.10;0.10;;;;;;;;;;6166098;23;20017;-77
2023/05/22 14:46:19;;;;;;;;;;;;;;;;;;;;;
2023/05/22 14:49:55;;;;;;;0.10;0.10;;;;;;;;;;6019568;23;20484;-77
2023/05/22 14:52:41;;;;;;;0.10;0.10;;;;;;;;;;6025208;23;20072;-77
2023/05/22 14:55:30;;;;;;;0.10;0.10;;;;;;;;;;6025015;23;20083;-77
2023/05/22 14:58:19;;;;;;;0.10;0.10;;;;;;;;;;6028305;23;20075;-77
2023/05/22 15:01:07;;;;;;;0.10;0.10;;;;;;;;;;6024302;23;20359;-77
2023/05/22 15:03:56;;;;;;;0.10;0.10;;;;;;;;;;6018579;23;20027;-77
2023/05/22 15:06:44;;;;;;;0.00;0.00;;;;;;;;;;6088633;22;20052;-87
2023/05/22 15:09:31;;;;;;;0.00;0.00;;;;;;;;;;6126297;23;20012;-86
2023/05/22 15:12:17;;;;;;;0.00;0.00;;;;;;;;;;6145264;23;20024;-77
2023/05/22 15:15:00;;;;;;;0.00;0.00;;;;;;;;;;6172417;23;20025;-77
2023/05/22 15:17:46;;;;;;;0.00;0.00;;;;;;;;;;6168993;23;20041;-77
2023/05/22 15:20:32;;;;;;;0.10;0.10;;;;;;;;;;6147455;23;20055;-77
2023/05/22 15:23:18;;;;;;;0.10;0.10;;;;;;;;;;6169074;23;20474;-77
2023/05/22 15:26:04;;;;;;;0.10;0.10;;;;;;;;;;6168842;23;20159;-77
2023/05/22 15:29:15;;;;;;;0.10;0.10;;;;;;;;;;6147948;23;20411;-83
2023/05/22 15:32:02;;;;;;;0.08;0.08;;;;;;;;;;6145937;23;20497;-83
2023/05/22 15:34:57;;;;;;;0.10;0.10;;;;;;;;;;6134860;23;20044;-84
2023/05/22 15:37:52;;;;;;;0.08;0.08;;;;;;;;;;6171185;23;20021;-84
2023/05/22 15:40:39;;;;;;;0.10;0.10;;;;;;;;;;6090826;22;20006;-86
2023/05/22 15:43:26;;;;;;;0.10;0.10;;;;;;;;;;6130851;23;20029;-87
2023/05/22 15:46:15;;;;;;;0.03;0.03;;;;;;;;;;6133739;23;20397;-88
2023/05/22 15:49:01;;;;;;;0.00;0.00;;;;;;;;;;6142580;23;20043;-76
2023/05/22 15:51:47;;;;;;;0.10;0.10;;;;;;;;;;6169398;23;20068;-76
2023/05/22 15:54:35;;;;;;;0.00;0.00;;;;;;;;;;6168626;23;20388;-76
2023/05/22 15:57:20;;;;;;;0.03;0.03;;;;;;;;;;6170377;23;20087;-76
2023/05/22 16:00:07;;;;;;;0.10;0.10;;;;;;;;;;6170250;23;20024;-76
2023/05/22 16:02:53;;;;;;;0.10;0.10;;;;;;;;;;6171828;23;20023;-76
2023/05/22 16:06:00;;;;;;;0.10;0.10;;;;;;;;;;6175413;23;20027;-76
2023/05/22 16:09:04;;;;;;;0.00;0.00;;;;;;;;;;6150719;23;20353;-77
2023/05/22 16:11:50;;;;;;;0.00;0.00;;;;;;;;;;6149069;23;20017;-76
2023/05/22 16:14:41;;;;;;;0.00;0.00;;;;;;;;;;6172030;23;20025;-76
2023/05/22 16:17:27;;;;;;;0.10;0.10;;;;;;;;;;6171738;23;20036;-76
2023/05/22 16:20:17;;;;;;;0.00;0.00;;;;;;;;;;6151653;23;20017;-76
2023/05/22 16:23:12;;;;;;;0.00;0.00;;;;;;;;;;6150325;23;20631;-76
2023/05/22 16:29:55;;;;;;;0.00;0.00;;;;;;;;;;6171169;23;20009;-77
2023/05/22 16:32:41;;;;;;;0.00;0.00;;;;;;;;;;6172880;23;20021;-77
2023/05/22 16:35:28;;;;;;;0.00;0.00;;;;;;;;;;6171475;23;20071;-77
2023/05/22 16:38:15;;;;;;;0.00;0.00;;;;;;;;;;6169908;23;20009;-77
2023/05/22 16:41:09;;;;;;;0.00;0.00;;;;;;;;;;6171974;23;20343;-77
2023/05/22 16:43:55;;;;;;;0.03;0.03;;;;;;;;;;6169169;23;20076;-77
2023/05/22 16:46:41;;;;;;;0.00;0.00;;;;;;;;;;6167784;23;20017;-77
2023/05/22 16:49:27;;;;;;;0.00;0.00;;;;;;;;;;6171002;23;20462;-77
2023/05/22 16:52:12;;;;;;;0.08;0.05;;;;;;;;;;6170279;23;20020;-77
2023/05/22 16:54:58;;;;;;;0.10;0.10;;;;;;;;;;6168794;23;20139;-77
2023/05/22 16:57:44;;;;;;;0.08;0.08;;;;;;;;;;6170884;23;20009;-77
2023/05/22 17:00:30;;;;;;;0.00;0.00;;;;;;;;;;6149355;23;20024;-77
2023/05/22 17:03:16;;;;;;;0.00;0.00;;;;;;;;;;6172153;23;20021;-77
2023/05/22 17:06:05;;;;;;;0.00;0.00;;;;;;;;;;6169810;23;20100;-77